Terminal Aerodrome Forecast
Issued by NWS

Home | Current Version | Previous Version | Text Only | Print | Product List | Glossary On
Versions: 1 2 3 4 5 6 7 8 9 10 11 12 13 14 15 16 17 18 19 20
174
FTUS43 KPAH 302055 AAA
TAFCGI
TAF AMD
KCGI 302055Z 3021/3118 22015G25KT P6SM SCT040
     FM310000 23009KT P6SM VCSH SCT015 BKN035
     FM310600 27007KT P6SM OVC015
     FM311500 30011G18KT P6SM BKN020=

USA.gov is the U.S. government's official web portal to all federal, state and local government web resources and services.